Time;durP1;ratioP1;P1;durP2;ratioP2;P2;SDS_P1;SDS_P2;PMS_P1;PMS_P2;Temp;Humidity;BMP_temperature;BMP_pressure;BME280_temperature;BME280_humidity;BME280_pressure;Samples;Min_cycle;Max_cycle;Signal;HPM_P1;HPM_P2
2022/05/14 00:01:39;;;;;;;2.08;1.92;;;;;;;20.60;55.79;99958.69;4325516;33;33695;-88
2022/05/14 00:04:09;;;;;;;2.72;2.30;;;;;;;20.51;56.21;99962.13;4308747;33;32595;-88
2022/05/14 00:06:37;;;;;;;2.87;2.40;;;;;;;20.30;56.81;99965.56;4309555;33;33485;-88
2022/05/14 00:09:06;;;;;;;4.43;2.50;;;;;;;19.81;58.42;99974.03;4321404;33;33985;-87
2022/05/14 00:14:21;;;;;;;3.97;3.15;;;;;;;19.92;58.14;99971.34;4331422;33;33708;-87
2022/05/14 00:16:50;;;;;;;2.85;2.60;;;;;;;19.82;58.31;99971.22;4333032;33;33667;-87
2022/05/14 00:19:18;;;;;;;3.10;2.47;;;;;;;20.15;57.37;99978.41;4328013;33;34271;-87
2022/05/14 00:21:48;;;;;;;3.17;2.60;;;;;;;20.06;57.77;99981.81;4320331;33;33231;-88
2022/05/14 00:24:17;;;;;;;3.50;2.65;;;;;;;20.19;57.22;99969.13;4332350;33;33960;-87
2022/05/14 00:26:45;;;;;;;2.58;2.37;;;;;;;19.98;58.04;99972.69;4321518;33;33473;-88
2022/05/14 00:29:14;;;;;;;4.43;2.70;;;;;;;20.16;57.52;99980.09;4318332;33;34013;-88
2022/05/14 00:31:42;;;;;;;4.57;2.87;;;;;;;19.87;58.42;99968.19;4328242;33;90050;-88
2022/05/14 00:34:10;;;;;;;3.87;3.00;;;;;;;20.24;57.48;99975.97;4328247;33;33530;-86
2022/05/14 00:36:38;;;;;;;2.62;2.33;;;;;;;20.26;57.34;99974.00;4332664;33;34544;-86
2022/05/14 00:39:06;;;;;;;6.57;2.50;;;;;;;20.39;57.00;99980.06;4309475;33;32328;-86
2022/05/14 00:41:36;;;;;;;3.28;2.97;;;;;;;20.10;57.81;99979.75;4323110;33;33641;-86
2022/05/14 00:44:04;;;;;;;3.90;3.10;;;;;;;19.67;59.22;99984.00;4335116;33;34353;-86
2022/05/14 00:46:42;;;;;;;3.85;2.80;;;;;;;19.61;59.21;99972.94;4308079;33;32943;-86
2022/05/14 00:49:11;;;;;;;4.25;2.90;;;;;;;19.58;59.63;99979.34;4323052;33;33548;-86
2022/05/14 00:51:42;;;;;;;3.70;2.80;;;;;;;19.62;59.28;99986.19;4333327;33;33519;-86
2022/05/14 00:54:13;;;;;;;4.78;3.30;;;;;;;19.60;59.42;99985.44;4334093;33;34342;-86
2022/05/14 00:57:07;;;;;;;3.10;2.42;;;;;;;19.56;59.74;99986.66;4323054;33;32839;-86
2022/05/14 00:59:40;;;;;;;4.93;2.78;;;;;;;19.73;58.98;99989.84;4335409;33;33412;-84
2022/05/14 01:02:08;;;;;;;4.72;3.08;;;;;;;19.46;59.88;99980.28;4334179;33;32328;-84
2022/05/14 01:04:40;;;;;;;3.45;3.05;;;;;;;19.32;60.28;99984.06;4323073;33;34129;-84
2022/05/14 01:07:15;;;;;;;4.40;3.03;;;;;;;19.05;61.42;99981.66;4341966;33;34548;-85
2022/05/14 01:09:47;;;;;;;4.22;2.87;;;;;;;19.16;61.13;99979.00;4322853;33;33027;-85
2022/05/14 01:12:18;;;;;;;4.90;3.05;;;;;;;19.39;60.63;99974.56;4329639;33;33520;-84
2022/05/14 01:14:46;;;;;;;5.20;3.12;;;;;;;19.27;60.81;99980.00;4334745;33;34732;-84
2022/05/14 01:17:16;;;;;;;3.50;3.20;;;;;;;19.45;60.60;99979.44;4322480;33;34398;-84
2022/05/14 01:19:44;;;;;;;4.62;3.55;;;;;;;19.65;59.80;99980.63;4321042;33;35038;-84
2022/05/14 01:22:40;;;;;;;5.47;3.10;;;;;;;19.60;59.93;99976.56;4334198;33;32265;-84
2022/05/14 01:28:15;;;;;;;4.72;3.53;;;;;;;19.47;60.31;99975.81;4340545;33;34147;-85
2022/05/14 01:30:46;;;;;;;3.55;3.00;;;;;;;19.40;60.52;99978.94;4334358;33;35283;-85
2022/05/14 01:33:14;;;;;;;4.50;3.75;;;;;;;19.51;60.11;99971.91;4331626;33;33286;-84
2022/05/14 01:35:44;;;;;;;5.68;3.42;;;;;;;19.43;60.43;99970.69;4322738;33;33960;-84
2022/05/14 01:38:13;;;;;;;4.75;3.30;;;;;;;19.59;59.93;99983.72;4334683;33;34315;-85
2022/05/14 01:40:41;;;;;;;8.20;4.05;;;;;;;19.43;60.41;99975.19;4334597;33;34026;-85
2022/05/14 01:43:09;;;;;;;4.18;3.60;;;;;;;19.58;59.91;99975.81;4333231;33;32506;-84
2022/05/14 01:45:37;;;;;;;5.45;3.50;;;;;;;19.78;59.35;99982.31;4334304;33;32929;-85
2022/05/14 01:48:07;;;;;;;7.10;3.80;;;;;;;19.33;60.72;99984.91;4334134;33;33598;-85
2022/05/14 01:50:36;;;;;;;4.32;3.65;;;;;;;19.37;60.78;99975.63;4330009;33;33463;-85
2022/05/14 01:53:04;;;;;;;5.15;3.72;;;;;;;19.48;60.33;99977.50;4329159;33;33307;-84
2022/05/14 01:55:34;;;;;;;4.40;4.00;;;;;;;19.29;60.92;99970.06;4321915;33;33253;-85
2022/05/14 01:58:36;;;;;;;6.30;3.72;;;;;;;19.25;61.02;99972.09;4324502;33;34116;-84
2022/05/14 02:00:53;;;;;;;6.53;4.03;;;;;;;19.45;60.34;99968.72;4332350;33;34055;-85
2022/05/14 02:03:21;;;;;;;4.60;4.07;;;;;;;19.56;60.11;99969.72;4333417;33;32827;-86
2022/05/14 02:05:49;;;;;;;4.57;4.12;;;;;;;19.67;59.70;99984.00;4341095;33;33349;-85
2022/05/14 02:08:17;;;;;;;5.18;3.80;;;;;;;19.27;61.08;99980.84;4321235;33;33762;-85
2022/05/14 02:10:45;;;;;;;7.65;3.95;;;;;;;19.44;60.32;99972.38;4334044;33;33708;-85
2022/05/14 02:13:13;;;;;;;5.15;4.62;;;;;;;19.52;60.21;99981.66;4334018;33;33632;-84
2022/05/14 02:15:41;;;;;;;6.80;4.30;;;;;;;19.37;60.73;99972.97;4332776;33;34732;-85
2022/05/14 02:18:09;;;;;;;5.05;3.87;;;;;;;19.69;59.63;99981.19;4333501;33;34795;-86
2022/05/14 02:20:37;;;;;;;4.35;3.90;;;;;;;19.42;59.96;99981.53;4321513;33;33107;-85
2022/05/14 02:23:06;;;;;;;7.82;3.62;;;;;;;19.34;60.37;99978.56;4333703;33;32675;-85
2022/05/14 02:25:35;;;;;;;5.80;4.15;;;;;;;19.49;59.95;99976.53;4325984;33;34344;-84
2022/05/14 02:28:04;;;;;;;8.95;4.70;;;;;;;19.54;59.80;99979.69;4334659;33;34939;-85
2022/05/14 02:30:33;;;;;;;6.00;3.28;;;;;;;19.26;60.67;99972.94;4322538;33;33781;-84
2022/05/14 02:33:01;;;;;;;8.15;3.95;;;;;;;19.30;60.44;99969.91;4321550;33;33659;-84
2022/05/14 02:35:30;;;;;;;4.93;3.97;;;;;;;19.27;60.51;99977.31;4321947;33;33657;-84
2022/05/14 02:38:06;;;;;;;5.05;4.10;;;;;;;19.15;60.66;99985.34;4325536;33;33136;-85
2022/05/14 02:40:34;;;;;;;5.40;4.00;;;;;;;19.28;60.56;99985.25;4333139;33;34815;-85
2022/05/14 02:43:02;;;;;;;6.62;5.05;;;;;;;19.17;60.88;99980.72;4322282;33;32817;-85
2022/05/14 02:45:30;;;;;;;5.20;4.22;;;;;;;19.17;61.21;99991.41;4320462;33;33224;-84
2022/05/14 02:47:58;;;;;;;8.50;4.80;;;;;;;19.25;60.81;99987.31;4325587;33;33904;-84
2022/05/14 02:50:26;;;;;;;3.95;3.53;;;;;;;19.12;61.23;99988.25;4330213;33;33888;-86
2022/05/14 02:52:54;;;;;;;4.70;4.10;;;;;;;18.89;61.83;99986.44;4327160;33;33792;-86
2022/05/14 02:55:23;;;;;;;7.93;4.35;;;;;;;18.96;61.58;99997.56;4333921;33;32901;-86
2022/05/14 02:57:53;;;;;;;5.70;5.15;;;;;;;19.22;61.05;99992.87;4334017;33;34222;-85
2022/05/14 03:00:21;;;;;;;7.03;5.78;;;;;;;18.97;61.64;99992.09;4319594;33;34333;-85
2022/05/14 03:02:49;;;;;;;7.12;4.90;;;;;;;18.91;61.91;99997.91;4332775;33;33261;-84
2022/05/14 03:05:20;;;;;;;8.02;4.93;;;;;;;18.86;62.30;99998.25;4333339;33;32604;-84
2022/05/14 03:07:52;;;;;;;5.50;4.25;;;;;;;18.78;62.61;100000.63;4321590;33;33140;-84
2022/05/14 03:10:22;;;;;;;6.70;4.65;;;;;;;18.73;62.53;100007.31;4309453;33;33256;-84
2022/05/14 03:12:50;;;;;;;5.37;4.75;;;;;;;18.74;62.22;100011.69;4347173;33;34231;-84
2022/05/14 03:15:18;;;;;;;6.05;4.93;;;;;;;18.79;61.96;100017.53;4321724;33;33619;-84
2022/05/14 03:17:46;;;;;;;5.57;5.07;;;;;;;18.41;63.26;100024.69;4333703;32;33313;-85
2022/05/14 03:20:14;;;;;;;7.20;4.90;;;;;;;18.41;63.23;100023.84;4340766;33;33919;-84
2022/05/14 03:22:42;;;;;;;6.30;5.05;;;;;;;18.59;62.54;100019.84;4334147;33;33299;-84
2022/05/14 03:25:10;;;;;;;5.37;4.87;;;;;;;18.49;63.12;100034.00;4321152;33;33562;-84
2022/05/14 03:27:38;;;;;;;6.12;5.15;;;;;;;18.29;63.87;100040.78;4332409;33;34010;-85
2022/05/14 03:30:07;;;;;;;6.57;5.35;;;;;;;17.72;66.10;100041.25;4347158;33;33840;-84
2022/05/14 03:32:38;;;;;;;10.55;5.60;;;;;;;18.01;65.40;100047.25;4333639;33;33009;-84
2022/05/14 03:35:08;;;;;;;11.93;5.80;;;;;;;18.02;65.26;100049.78;4321455;33;33291;-84
2022/05/14 03:37:37;;;;;;;5.75;4.93;;;;;;;18.17;64.84;100043.34;4334090;33;33858;-84
2022/05/14 03:40:06;;;;;;;5.87;4.87;;;;;;;18.54;63.59;100039.88;4320362;33;33865;-84
2022/05/14 03:42:34;;;;;;;5.50;4.78;;;;;;;18.80;62.74;100046.00;4321330;33;34147;-84
2022/05/14 03:45:03;;;;;;;5.70;5.10;;;;;;;18.81;62.84;100042.38;4328856;33;34337;-85
2022/05/14 03:47:31;;;;;;;5.65;4.80;;;;;;;18.95;62.33;100034.19;4331750;33;32894;-84
2022/05/14 03:49:59;;;;;;;7.10;5.72;;;;;;;19.12;62.07;100035.56;4309537;33;33021;-84
2022/05/14 03:52:27;;;;;;;5.62;5.03;;;;;;;18.86;62.84;100040.22;4324782;33;32506;-84
2022/05/14 03:54:55;;;;;;;5.55;4.95;;;;;;;19.22;61.90;100041.06;4337580;33;32785;-84
2022/05/14 03:57:23;;;;;;;5.25;4.75;;;;;;;19.33;61.45;100046.50;4321129;33;34777;-84
2022/05/14 03:59:51;;;;;;;9.70;5.25;;;;;;;19.28;61.84;100056.69;4333239;33;34039;-84
2022/05/14 04:02:21;;;;;;;5.87;5.25;;;;;;;19.14;62.04;100055.91;4333042;33;35294;-84
2022/05/14 04:04:50;;;;;;;5.50;4.82;;;;;;;19.16;62.06;100059.31;4337784;33;33673;-84
2022/05/14 04:07:19;;;;;;;9.80;5.12;;;;;;;19.15;62.17;100062.97;4327144;33;34401;-84
2022/05/14 04:09:48;;;;;;;5.55;4.82;;;;;;;19.38;61.53;100071.09;4332543;33;33455;-84
2022/05/14 04:12:17;;;;;;;6.78;5.07;;;;;;;19.52;60.91;100072.72;4324885;33;33667;-86
2022/05/14 04:14:46;;;;;;;5.75;4.93;;;;;;;19.64;60.79;100069.97;4329095;33;33594;-84
2022/05/14 04:17:14;;;;;;;7.37;5.28;;;;;;;19.54;61.25;100074.28;4322474;33;33623;-84
2022/05/14 04:19:42;;;;;;;5.12;4.62;;;;;;;19.97;59.74;100075.50;4327781;33;32767;-84
2022/05/14 04:22:10;;;;;;;6.18;5.45;;;;;;;19.81;60.38;100082.06;4320421;33;33463;-84
2022/05/14 04:24:39;;;;;;;7.22;5.57;;;;;;;19.79;60.50;100078.63;4328804;33;33239;-85
2022/05/14 04:27:08;;;;;;;7.12;5.15;;;;;;;19.86;60.36;100084.41;4335386;33;33923;-83
2022/05/14 04:29:36;;;;;;;7.72;5.07;;;;;;;19.68;60.74;100087.50;4332824;33;34816;-84
2022/05/14 04:32:05;;;;;;;6.22;5.50;;;;;;;19.77;60.43;100091.31;4328477;33;32960;-84
2022/05/14 04:34:42;;;;;;;5.97;5.18;;;;;;;19.69;60.80;100094.56;4330285;33;34369;-83
2022/05/14 04:37:11;;;;;;;6.32;5.35;;;;;;;19.87;60.25;100094.13;4320820;33;33690;-84
2022/05/14 04:39:39;;;;;;;5.37;4.82;;;;;;;20.11;59.61;100100.25;4331458;33;34092;-84
2022/05/14 04:42:09;;;;;;;8.60;4.85;;;;;;;20.04;59.37;100106.22;4323043;33;34381;-84
2022/05/14 04:44:40;;;;;;;5.72;5.05;;;;;;;20.15;59.29;100109.75;4325638;33;33867;-84
2022/05/14 04:47:10;;;;;;;7.90;5.47;;;;;;;20.14;59.02;100105.37;4331436;33;33440;-83
2022/05/14 04:49:41;;;;;;;11.38;6.47;;;;;;;20.27;58.74;100115.13;4322180;33;33687;-83
2022/05/14 04:52:10;;;;;;;5.22;4.72;;;;;;;20.18;58.90;100111.37;4327168;33;34902;-83
2022/05/14 04:54:41;;;;;;;6.87;5.03;;;;;;;20.31;58.50;100105.88;4319699;33;33852;-83
2022/05/14 04:57:10;;;;;;;6.93;5.45;;;;;;;20.56;58.41;100113.72;4327877;33;33021;-84
2022/05/14 04:59:39;;;;;;;10.65;5.20;;;;;;;20.39;58.69;100114.16;4326657;33;34063;-84
2022/05/14 05:05:04;;;;;;;9.00;5.12;;;;;;;20.69;57.79;100110.88;4338007;33;32719;-84
2022/05/14 05:07:32;;;;;;;7.82;5.72;;;;;;;20.77;57.38;100119.16;4338367;33;34469;-84
2022/05/14 05:10:07;;;;;;;7.35;5.00;;;;;;;20.78;57.52;100122.69;4338273;33;35280;-85
2022/05/14 05:12:43;;;;;;;10.07;4.93;;;;;;;20.94;57.52;100123.19;4314503;33;32993;-85
2022/05/14 05:15:13;;;;;;;6.75;4.47;;;;;;;20.76;57.25;100125.53;4315567;33;32546;-85
2022/05/14 05:17:43;;;;;;;6.95;4.70;;;;;;;20.83;57.22;100133.91;4319187;33;34214;-85
2022/05/14 05:20:11;;;;;;;5.07;4.37;;;;;;;20.98;56.46;100138.03;4315309;33;33763;-85
2022/05/14 05:22:42;;;;;;;5.22;3.67;;;;;;;21.22;56.16;100130.66;4326809;33;32491;-85
2022/05/14 05:25:14;;;;;;;5.05;4.55;;;;;;;21.49;55.56;100132.03;4316519;33;32753;-85
2022/05/14 05:27:44;;;;;;;6.00;4.43;;;;;;;21.56;55.12;100138.63;4330026;33;33987;-85
2022/05/14 05:30:17;;;;;;;7.37;4.55;;;;;;;21.59;55.07;100140.19;4324458;33;33902;-85
2022/05/14 05:32:48;;;;;;;8.23;4.30;;;;;;;21.44;54.39;100143.19;4326730;33;32432;-85
2022/05/14 05:35:21;;;;;;;;;;;;;;;21.70;54.14;100146.38;4333676;33;33149;-85
2022/05/14 05:37:50;;;;;;;5.57;4.28;;;;;;;21.70;53.63;100146.38;4325212;33;33957;-86
2022/05/14 05:40:19;;;;;;;4.55;3.80;;;;;;;21.91;53.18;100148.22;4329778;33;33095;-85
2022/05/14 05:42:48;;;;;;;4.47;3.95;;;;;;;21.78;53.29;100158.28;4329418;33;34788;-86
2022/05/14 05:45:19;;;;;;;6.62;3.78;;;;;;;21.63;52.91;100152.37;4330149;33;33452;-85
2022/05/14 05:47:48;;;;;;;4.80;3.55;;;;;;;21.95;52.82;100155.03;4313568;33;34946;-85
2022/05/14 05:50:27;;;;;;;6.00;3.30;;;;;;;22.08;51.82;100154.84;4329186;33;34858;-85
2022/05/14 05:52:55;;;;;;;3.90;3.28;;;;;;;22.26;51.46;100152.41;4327148;33;33273;-85
2022/05/14 05:58:17;;;;;;;10.55;3.28;;;;;;;22.31;50.17;100160.94;4331369;33;34736;-85
2022/05/14 06:00:47;;;;;;;5.25;3.03;;;;;;;22.48;49.15;100163.00;4322803;33;33338;-85
2022/05/14 06:03:18;;;;;;;5.23;3.20;;;;;;;22.52;48.91;100169.84;4325214;33;33245;-85
2022/05/14 06:05:47;;;;;;;6.82;3.28;;;;;;;22.64;48.90;100165.19;4337567;33;33840;-85
2022/05/14 06:08:20;;;;;;;4.28;2.30;;;;;;;22.63;48.26;100169.72;4313225;33;33743;-85
2022/05/14 06:10:52;;;;;;;3.50;3.15;;;;;;;22.86;46.71;100173.09;4314985;33;33505;-84
2022/05/14 06:13:21;;;;;;;4.85;2.35;;;;;;;22.60;46.46;100172.72;4327921;33;32648;-84
2022/05/14 06:15:49;;;;;;;3.08;2.45;;;;;;;22.74;45.39;100177.72;4337074;33;33716;-85
2022/05/14 06:18:19;;;;;;;8.50;2.92;;;;;;;22.85;45.09;100182.16;4314339;33;32789;-84
2022/05/14 06:20:47;;;;;;;7.10;2.25;;;;;;;22.66;44.18;100174.84;4322550;33;33841;-84
2022/05/14 06:23:20;;;;;;;7.32;2.58;;;;;;;22.47;44.77;100172.06;4313755;33;33926;-84
2022/05/14 06:25:52;;;;;;;5.20;2.42;;;;;;;22.67;43.48;100173.84;4337851;33;31971;-84
2022/05/14 06:28:22;;;;;;;4.45;3.40;;;;;;;22.89;43.20;100174.69;4317534;33;35528;-85
2022/05/14 06:30:58;;;;;;;3.75;2.25;;;;;;;22.99;44.63;100179.13;4303366;33;34545;-85
2022/05/14 06:33:27;;;;;;;6.05;2.67;;;;;;;23.04;44.04;100180.53;4310080;33;32538;-85
2022/05/14 06:35:58;;;;;;;3.58;2.17;;;;;;;23.14;43.60;100178.72;4310573;33;34061;-85
2022/05/14 06:38:29;;;;;;;6.65;2.55;;;;;;;22.61;42.75;100179.78;4324092;33;33525;-85
2022/05/14 06:41:04;;;;;;;2.95;1.90;;;;;;;22.78;41.35;100180.13;4325582;33;33013;-85
2022/05/14 06:43:36;;;;;;;6.62;2.20;;;;;;;22.64;41.26;100184.88;4329738;33;33765;-84
2022/05/14 06:46:05;;;;;;;6.18;2.10;;;;;;;22.79;42.15;100184.53;4321010;33;33655;-84
2022/05/14 06:48:34;;;;;;;4.68;2.42;;;;;;;23.15;40.24;100183.97;4323938;33;33283;-85
2022/05/14 06:51:06;;;;;;;3.58;1.90;;;;;;;23.19;40.78;100184.53;4319991;33;33835;-85
2022/05/14 06:53:36;;;;;;;3.22;1.80;;;;;;;23.43;39.65;100184.16;4305806;33;33937;-86
2022/05/14 06:56:07;;;;;;;2.67;1.90;;;;;;;23.41;39.24;100188.84;4321036;33;33981;-85
2022/05/14 06:58:39;;;;;;;6.32;1.60;;;;;;;23.40;39.49;100187.97;4318410;33;35932;-85
2022/05/14 07:01:11;;;;;;;4.05;2.47;;;;;;;23.84;39.49;100195.72;4327558;33;33977;-84
2022/05/14 07:06:38;;;;;;;4.62;2.25;;;;;;;23.98;40.81;100197.97;4310300;33;33166;-84
2022/05/14 07:09:15;;;;;;;3.60;2.08;;;;;;;24.11;38.15;100194.97;4303373;33;32203;-85
2022/05/14 07:11:49;;;;;;;6.20;1.80;;;;;;;23.81;40.95;100201.38;4305581;33;33446;-85
2022/05/14 07:14:18;;;;;;;;;;;;;;;23.62;39.24;100196.81;4323525;33;32602;-86
2022/05/14 07:16:53;;;;;;;5.75;1.65;;;;;;;23.68;38.89;100202.50;4314551;33;33026;-84
2022/05/14 07:19:23;;;;;;;6.12;1.83;;;;;;;24.15;38.35;100199.06;4325808;33;32666;-83
2022/05/14 07:21:55;;;;;;;6.72;2.00;;;;;;;24.05;38.04;100203.63;4321418;33;34569;-85
2022/05/14 07:24:28;;;;;;;4.72;1.87;;;;;;;24.30;37.81;100197.63;4323846;33;32547;-84
2022/05/14 07:27:01;;;;;;;3.83;2.22;;;;;;;24.02;36.94;100200.25;4319219;33;34106;-84
2022/05/14 07:29:31;;;;;;;5.20;2.30;;;;;;;24.16;37.69;100207.00;4312603;33;32983;-83
2022/05/14 07:31:59;;;;;;;5.65;2.03;;;;;;;24.55;37.85;100196.19;4323012;33;33747;-83
2022/05/14 07:34:28;;;;;;;6.03;2.20;;;;;;;24.75;37.04;100200.50;4312831;33;33570;-85
2022/05/14 07:37:14;;;;;;;3.70;1.67;;;;;;;24.23;36.38;100197.34;4309064;33;32483;-86
2022/05/14 07:39:51;;;;;;;6.07;2.35;;;;;;;24.38;37.39;100202.34;4313505;33;33344;-85
2022/05/14 07:42:56;;;;;;;2.62;1.67;;;;;;;24.55;36.73;100200.72;4334278;33;34090;-85
2022/05/14 07:45:32;;;;;;;3.37;1.90;;;;;;;24.37;36.14;100203.34;4323712;33;32688;-84
2022/05/14 07:48:04;;;;;;;5.43;2.33;;;;;;;24.86;37.16;100202.16;4313124;33;32740;-84
2022/05/14 07:50:32;;;;;;;2.83;1.60;;;;;;;24.76;34.22;100204.91;4306342;33;32332;-84
2022/05/14 07:53:00;;;;;;;3.78;1.77;;;;;;;24.72;34.39;100202.63;4307979;33;33729;-84
2022/05/14 07:55:33;;;;;;;6.85;2.25;;;;;;;24.35;35.35;100198.03;4311304;33;33295;-84
2022/05/14 07:58:03;;;;;;;8.07;2.17;;;;;;;24.58;35.65;100197.72;4336892;33;33889;-85
2022/05/14 08:00:35;;;;;;;4.53;1.85;;;;;;;24.83;34.13;100199.78;4322374;33;32508;-85
2022/05/14 08:03:04;;;;;;;11.02;2.53;;;;;;;24.74;33.60;100196.09;4322908;33;34368;-84
2022/05/14 08:05:40;;;;;;;8.25;1.37;;;;;;;24.95;33.22;100203.13;4319881;33;32869;-84
2022/05/14 08:08:12;;;;;;;7.12;1.98;;;;;;;24.65;32.92;100202.41;4322361;33;34244;-85
2022/05/14 08:10:41;;;;;;;7.97;2.45;;;;;;;24.75;31.94;100203.19;4325290;33;32993;-84
2022/05/14 08:13:15;;;;;;;2.58;1.73;;;;;;;24.69;30.42;100203.81;4316397;33;33478;-84
2022/05/14 08:15:45;;;;;;;2.33;1.60;;;;;;;25.06;32.23;100200.19;4315661;33;33095;-84
2022/05/14 08:18:17;;;;;;;4.05;1.65;;;;;;;24.69;31.85;100206.50;4324729;33;33127;-84
2022/05/14 08:20:51;;;;;;;5.93;1.33;;;;;;;24.48;31.73;100200.44;4323383;33;33447;-84
2022/05/14 08:26:15;;;;;;;9.60;1.48;;;;;;;24.71;31.20;100200.94;4337810;33;33349;-89
2022/05/14 08:28:47;;;;;;;4.75;1.40;;;;;;;24.95;31.07;100195.00;4315172;33;33587;-89
2022/05/14 08:31:15;;;;;;;4.03;1.50;;;;;;;24.87;30.59;100205.69;4334854;33;32626;-89
2022/05/14 08:33:46;;;;;;;4.10;1.10;;;;;;;24.88;29.67;100202.03;4315264;33;34170;-88
2022/05/14 08:36:15;;;;;;;3.03;1.20;;;;;;;24.97;29.87;100201.09;4331206;33;32098;-88
2022/05/14 08:38:45;;;;;;;6.25;1.02;;;;;;;25.25;29.41;100191.16;4328783;33;32774;-84
2022/05/14 08:41:15;;;;;;;24.45;2.67;;;;;;;25.18;29.64;100199.03;4326410;33;33061;-84
2022/05/14 08:44:00;;;;;;;20.27;2.20;;;;;;;25.16;29.56;100201.06;4331512;33;33146;-83
2022/05/14 08:46:34;;;;;;;8.32;1.40;;;;;;;25.51;28.98;100202.09;4314110;33;33729;-83
2022/05/14 08:49:09;;;;;;;1.52;1.05;;;;;;;25.50;30.69;100195.00;4330317;33;33864;-84
2022/05/14 08:51:46;;;;;;;6.32;1.50;;;;;;;25.05;28.29;100198.50;4343838;33;33384;-84
2022/05/14 08:54:17;;;;;;;4.72;1.62;;;;;;;25.25;28.14;100189.31;4343651;33;34125;-83
2022/05/14 08:57:27;;;;;;;2.22;1.08;;;;;;;25.39;28.16;100192.50;4327170;33;33306;-83
2022/05/14 08:59:59;;;;;;;6.15;1.45;;;;;;;24.87;29.13;100194.91;4319714;33;33292;-85
2022/05/14 09:02:33;;;;;;;2.62;1.33;;;;;;;25.00;30.00;100196.25;4321332;33;33892;-85
2022/05/14 09:05:11;;;;;;;8.00;1.67;;;;;;;24.88;28.98;100196.63;4327681;33;34164;-84
2022/05/14 09:07:42;;;;;;;3.33;1.67;;;;;;;25.25;29.39;100189.31;4325569;33;33269;-84
2022/05/14 09:10:24;;;;;;;7.45;1.50;;;;;;;25.29;28.98;100189.87;4313630;33;33177;-84
2022/05/14 09:12:59;;;;;;;3.47;1.50;;;;;;;24.97;29.80;100201.09;4322049;33;33343;-84
2022/05/14 09:18:14;;;;;;;6.78;1.55;;;;;;;25.46;28.82;100190.91;4323860;33;33004;-84
2022/05/14 09:21:03;;;;;;;9.10;1.65;;;;;;;25.91;29.41;100196.25;4316969;33;32946;-84
2022/05/14 09:23:39;;;;;;;2.60;1.55;;;;;;;26.05;29.96;100186.72;4324108;33;33418;-84
2022/05/14 09:26:24;;;;;;;3.47;2.05;;;;;;;26.32;30.11;100182.19;4330326;33;33150;-84
2022/05/14 09:28:58;;;;;;;6.97;1.67;;;;;;;26.16;28.16;100188.31;4313421;33;33902;-83
2022/05/14 09:31:32;;;;;;;4.25;1.85;;;;;;;25.94;29.06;100181.56;4327206;33;33646;-84
2022/05/14 09:34:24;;;;;;;2.08;1.10;;;;;;;25.86;28.60;100192.31;4319290;33;34131;-84
2022/05/14 09:37:18;;;;;;;5.65;1.52;;;;;;;26.14;28.97;100179.50;4335962;33;32808;-84
2022/05/14 09:39:58;;;;;;;2.47;1.40;;;;;;;26.11;29.08;100185.22;4329124;33;33017;-84
2022/05/14 09:42:49;;;;;;;5.55;1.50;;;;;;;26.49;28.34;100174.03;4331386;33;34588;-84
2022/05/14 09:46:00;;;;;;;6.95;2.00;;;;;;;26.68;28.77;100167.53;4330421;33;33765;-84
2022/05/14 09:48:30;;;;;;;10.10;1.58;;;;;;;26.59;28.67;100173.94;4325402;33;33986;-84
2022/05/14 09:51:07;;;;;;;10.75;2.97;;;;;;;26.68;27.73;100170.25;4345849;33;33804;-84
2022/05/14 09:53:39;;;;;;;2.22;1.85;;;;;;;26.71;27.19;100171.78;4324296;33;34837;-84
2022/05/14 09:56:33;;;;;;;4.57;1.65;;;;;;;26.68;26.60;100166.66;4325421;33;33871;-84
2022/05/14 09:59:20;;;;;;;3.37;1.70;;;;;;;26.63;26.60;100167.16;4334015;33;33353;-88
2022/05/14 10:02:04;;;;;;;3.08;1.60;;;;;;;26.53;26.67;100161.84;4330853;33;33595;-89
2022/05/14 10:04:48;;;;;;;12.48;1.92;;;;;;;26.38;27.47;100151.75;4336653;33;33863;-87
2022/05/14 10:07:27;;;;;;;5.97;1.80;;;;;;;26.69;27.39;100152.97;4333158;33;34928;-89
2022/05/14 10:10:19;;;;;;;6.20;2.25;;;;;;;26.60;27.26;100163.94;4323879;33;34221;-87
2022/05/14 10:13:04;;;;;;;2.95;1.37;;;;;;;26.66;28.28;100158.72;4328529;33;33104;-86
2022/05/14 10:15:45;;;;;;;1.62;1.52;;;;;;;26.67;26.81;100162.25;4313821;33;32977;-87
2022/05/14 10:18:20;;;;;;;3.00;1.52;;;;;;;27.05;26.59;100158.19;4337112;33;34801;-87
2022/05/14 10:20:55;;;;;;;15.23;1.90;;;;;;;27.00;26.67;100150.53;4318226;33;33867;-87
2022/05/14 10:27:13;;;;;;;5.85;1.67;;;;;;;26.17;27.05;100153.00;4344314;33;33805;-85
2022/05/14 10:29:54;;;;;;;;;;;;;;;26.47;27.53;100145.41;4324663;33;32952;-84
2022/05/14 10:32:30;;;;;;;3.62;1.50;;;;;;;26.25;28.10;100136.81;4333748;33;35260;-85
2022/05/14 10:35:24;;;;;;;2.37;1.50;;;;;;;26.67;27.97;100149.56;4328280;33;32525;-85
2022/05/14 10:37:57;;;;;;;3.80;1.42;;;;;;;26.73;26.28;100143.53;4318195;33;33593;-85
2022/05/14 10:40:34;;;;;;;1.90;1.70;;;;;;;26.84;26.82;100147.78;4330759;33;33944;-85
2022/05/14 10:43:13;;;;;;;1.55;1.10;;;;;;;26.92;25.09;100149.66;4315034;33;32710;-85
2022/05/14 10:45:48;;;;;;;4.20;1.30;;;;;;;27.18;25.65;100136.91;4345631;33;33528;-85
2022/05/14 10:48:35;;;;;;;;;;;;;;;27.11;26.14;100135.91;4319807;33;34646;-86
2022/05/14 10:51:10;;;;;;;5.20;1.87;;;;;;;26.89;25.63;100139.16;4336082;33;34369;-85
2022/05/14 10:53:41;;;;;;;7.20;1.50;;;;;;;26.85;25.30;100138.66;4311120;33;32715;-85
2022/05/14 10:56:16;;;;;;;3.75;1.48;;;;;;;26.67;26.33;100144.16;4321166;33;32278;-85
2022/05/14 10:58:53;;;;;;;4.65;1.58;;;;;;;26.56;25.27;100136.31;4315595;33;33777;-85
2022/05/14 11:01:46;;;;;;;3.12;1.33;;;;;;;26.63;25.10;100137.34;4317036;33;33765;-85
2022/05/14 11:04:42;;;;;;;2.53;1.23;;;;;;;26.52;24.72;100134.94;4340712;33;33098;-85
2022/05/14 11:07:33;;;;;;;1.77;1.52;;;;;;;26.38;27.44;100136.34;4340638;33;34051;-85
2022/05/14 11:10:12;;;;;;;5.03;1.83;;;;;;;26.85;24.42;100124.25;4333977;33;32869;-85
2022/05/14 11:12:43;;;;;;;1.55;1.10;;;;;;;26.79;24.09;100136.59;4329766;33;34541;-84
2022/05/14 11:15:24;;;;;;;1.75;1.45;;;;;;;27.03;25.46;100130.41;4332350;33;34209;-84
2022/05/14 11:18:10;;;;;;;3.65;1.33;;;;;;;26.94;24.53;100121.41;4331501;33;33392;-85
2022/05/14 11:21:07;;;;;;;3.20;1.10;;;;;;;26.99;25.10;100127.19;4313080;33;33693;-85
2022/05/14 11:23:48;;;;;;;2.67;1.30;;;;;;;26.85;25.44;100129.66;4336696;33;33675;-85
2022/05/14 11:26:30;;;;;;;3.65;1.55;;;;;;;27.12;24.21;100117.75;4314988;33;33844;-85
2022/05/14 11:29:19;;;;;;;2.08;1.40;;;;;;;27.12;23.47;100115.91;4317202;33;31716;-85
2022/05/14 11:32:03;;;;;;;4.15;1.75;;;;;;;26.99;24.50;100115.50;4315636;33;33903;-85
2022/05/14 11:34:32;;;;;;;1.90;1.60;;;;;;;27.09;24.38;100113.50;4318549;33;33160;-85
2022/05/14 11:37:03;;;;;;;4.60;1.65;;;;;;;26.68;24.51;100109.78;4323492;33;34849;-84
2022/05/14 11:39:38;;;;;;;5.45;1.62;;;;;;;26.45;25.63;100118.50;4321851;33;32088;-85
2022/05/14 11:42:30;;;;;;;7.18;1.52;;;;;;;26.38;23.24;100109.28;4321117;33;33688;-84
2022/05/14 11:45:15;;;;;;;1.98;1.10;;;;;;;26.47;20.81;100115.63;4322153;33;33320;-85
2022/05/14 11:47:52;;;;;;;3.97;1.20;;;;;;;26.41;21.84;100102.72;4339010;33;34928;-85
2022/05/14 11:50:35;;;;;;;4.95;1.08;;;;;;;26.38;23.43;100103.03;4334399;33;35434;-85
2022/05/14 11:55:59;;;;;;;2.50;1.33;;;;;;;26.90;24.07;100102.94;4317758;33;33675;-85
2022/05/14 11:58:37;;;;;;;4.97;1.40;;;;;;;27.16;24.38;100101.00;4324702;33;33554;-85
2022/05/14 12:01:15;;;;;;;3.53;1.67;;;;;;;27.28;23.89;100099.66;4337225;33;33887;-85
2022/05/14 12:03:45;;;;;;;4.40;1.23;;;;;;;27.45;23.45;100095.09;4332657;33;34576;-85
2022/05/14 12:06:24;;;;;;;6.30;1.50;;;;;;;27.15;25.43;100088.44;4319443;33;33936;-85
2022/05/14 12:09:04;;;;;;;3.15;1.23;;;;;;;27.14;23.72;100103.00;4333792;33;33159;-84
2022/05/14 12:11:56;;;;;;;2.25;1.05;;;;;;;27.23;25.06;100102.03;4324236;33;32439;-85
2022/05/14 12:14:31;;;;;;;6.10;2.25;;;;;;;27.43;24.65;100090.84;4340135;33;33182;-86
2022/05/14 12:17:02;;;;;;;1.92;1.45;;;;;;;27.55;24.74;100100.34;4317777;33;33309;-85
2022/05/14 12:19:33;;;;;;;3.43;1.40;;;;;;;27.39;24.11;100094.91;4306307;33;33564;-85
2022/05/14 12:22:23;;;;;;;3.85;2.25;;;;;;;27.66;24.01;100089.16;4322643;33;32698;-84